createdAt,value
2022-08-12T00:00:53.136Z,79.66
2022-08-12T00:02:02.852Z,80.89
2022-08-12T00:02:54.179Z,80.81
2022-08-12T00:03:53.110Z,81.12
2022-08-12T00:04:53.126Z,81.83
2022-08-12T00:06:04.173Z,81.67
2022-08-12T00:06:54.096Z,81.60
2022-08-12T00:07:53.059Z,81.60
2022-08-12T00:08:53.050Z,79.96
2022-08-12T00:09:53.034Z,79.29
2022-08-12T00:10:53.025Z,78.91
2022-08-12T00:11:53.059Z,78.84
2022-08-12T00:12:53.020Z,78.40
2022-08-12T00:13:52.986Z,78.32
2022-08-12T00:14:52.982Z,77.60
2022-08-12T00:15:52.964Z,76.61
2022-08-12T00:16:52.971Z,76.13
2022-08-12T00:17:52.932Z,74.90
2022-08-12T00:18:52.936Z,75.38
2022-08-12T00:19:52.923Z,76.75
2022-08-12T00:20:52.893Z,77.10
2022-08-12T00:21:52.894Z,78.18
2022-08-12T00:22:59.169Z,79.66
2022-08-12T00:23:53.877Z,80.89
2022-08-12T00:24:52.859Z,81.20
2022-08-12T00:26:21.018Z,82.15
2022-08-12T00:26:53.821Z,82.15
2022-08-12T00:27:52.823Z,81.28
2022-08-12T00:28:52.802Z,78.18
2022-08-12T00:29:52.785Z,75.24
2022-08-12T00:30:52.782Z,71.53
2022-08-12T00:31:52.794Z,67.45
2022-08-12T00:32:56.487Z,63.19
2022-08-12T00:33:52.915Z,60.29
2022-08-12T00:34:52.737Z,59.65
2022-08-12T00:35:52.717Z,58.82
2022-08-12T00:36:52.706Z,57.21
2022-08-12T00:37:52.707Z,55.44
2022-08-12T00:38:52.697Z,53.67
2022-08-12T00:39:52.751Z,52.47
2022-08-12T00:40:52.661Z,51.56
2022-08-12T00:41:52.652Z,50.60
2022-08-12T00:42:52.650Z,49.50
2022-08-12T00:43:56.071Z,48.70
2022-08-12T00:44:52.638Z,48.25
2022-08-12T00:45:52.608Z,48.25
2022-08-12T00:46:52.598Z,48.50
2022-08-12T00:47:52.589Z,48.81
2022-08-12T00:48:52.560Z,49.41
2022-08-12T00:49:52.550Z,50.21
2022-08-12T00:50:52.579Z,51.28
2022-08-12T00:51:52.885Z,52.37
2022-08-12T00:52:52.518Z,53.81
2022-08-12T00:53:52.498Z,54.68
2022-08-12T00:54:52.500Z,55.62
2022-08-12T00:55:52.500Z,56.11
2022-08-12T00:56:52.470Z,56.14
2022-08-12T00:57:52.499Z,56.90
2022-08-12T00:58:52.467Z,57.25
2022-08-12T00:59:52.442Z,57.81
2022-08-12T01:00:52.502Z,58.33
2022-08-12T01:02:01.014Z,58.08
2022-08-12T01:02:53.396Z,57.81
2022-08-12T01:03:52.411Z,56.83
2022-08-12T01:04:52.397Z,55.70
2022-08-12T01:05:52.408Z,54.79
2022-08-12T01:06:53.843Z,54.22
2022-08-12T01:07:52.347Z,53.36
2022-08-12T01:08:52.326Z,52.96
2022-08-12T01:09:52.337Z,52.43
2022-08-12T01:10:52.356Z,51.79
2022-08-12T01:11:52.302Z,51.22
2022-08-12T01:12:52.289Z,49.97
2022-08-12T01:13:52.291Z,48.64
2022-08-12T01:14:52.274Z,47.51
2022-08-12T01:15:52.252Z,48.44
2022-08-12T01:16:52.287Z,51.12
2022-08-12T01:17:52.234Z,53.36
2022-08-12T01:18:52.216Z,55.59
2022-08-12T01:19:52.207Z,57.92
2022-08-12T01:20:52.208Z,58.12
2022-08-12T01:21:52.203Z,58.00
2022-08-12T01:22:52.163Z,56.90
2022-08-12T01:23:52.212Z,56.79
2022-08-12T01:24:52.140Z,55.04
2022-08-12T01:25:56.221Z,53.50
2022-08-12T01:26:52.133Z,52.14
2022-08-12T01:27:52.125Z,50.21
2022-08-12T01:28:52.101Z,48.90
2022-08-12T01:29:52.117Z,47.73
2022-08-12T01:30:52.085Z,47.51
2022-08-12T01:31:52.074Z,48.03
2022-08-12T01:32:52.061Z,49.59
2022-08-12T01:33:52.094Z,49.41
2022-08-12T01:34:52.027Z,47.92
2022-08-12T01:35:57.988Z,45.34
2022-08-12T01:36:52.995Z,44.95
2022-08-12T01:37:52.017Z,45.19
2022-08-12T01:38:51.993Z,45.34
2022-08-12T01:40:31.647Z,45.53
2022-08-12T01:40:53.024Z,45.53
2022-08-12T01:41:53.734Z,45.68
2022-08-12T01:42:52.001Z,45.34
2022-08-12T01:43:51.920Z,45.29
2022-08-12T01:44:51.918Z,44.66
2022-08-12T01:45:55.779Z,44.15
2022-08-12T01:46:52.892Z,43.83
2022-08-12T01:47:51.874Z,43.37
2022-08-12T01:48:51.873Z,42.76
2022-08-12T01:49:51.873Z,42.58
2022-08-12T01:50:51.829Z,42.54
2022-08-12T01:52:21.732Z,43.06
2022-08-12T01:52:52.828Z,43.69
2022-08-12T01:53:51.850Z,44.24
2022-08-12T01:54:51.790Z,45.39
2022-08-12T01:55:51.778Z,46.75
2022-08-12T01:56:51.763Z,48.95
2022-08-12T01:57:59.733Z,51.03
2022-08-12T01:58:52.781Z,53.06
2022-08-12T01:59:51.730Z,54.22
2022-08-12T02:00:55.288Z,55.37
2022-08-12T02:01:51.749Z,57.21
2022-08-12T02:02:51.720Z,59.06
2022-08-12T02:03:51.686Z,60.90
2022-08-12T02:04:51.702Z,62.07
2022-08-12T02:05:51.670Z,62.63
2022-08-12T02:06:51.648Z,63.87
2022-08-12T02:07:51.641Z,64.16
2022-08-12T02:08:52.145Z,65.05
2022-08-12T02:09:51.621Z,65.15
2022-08-12T02:10:52.163Z,65.10
2022-08-12T02:11:51.613Z,65.97
2022-08-12T02:12:51.573Z,65.66
2022-08-12T02:13:51.571Z,65.51
2022-08-12T02:14:51.556Z,65.46
2022-08-12T02:15:51.563Z,65.46
2022-08-12T02:16:51.561Z,64.65
2022-08-12T02:17:55.929Z,64.85
2022-08-12T02:18:52.511Z,64.85
2022-08-12T02:19:51.494Z,64.50
2022-08-12T02:20:52.888Z,64.35
2022-08-12T02:21:51.475Z,63.91
2022-08-12T02:22:51.464Z,64.16
2022-08-12T02:23:51.454Z,64.01
2022-08-12T02:24:51.446Z,64.31
2022-08-12T02:25:51.469Z,64.26
2022-08-12T02:26:51.413Z,63.91
2022-08-12T02:27:51.427Z,63.91
2022-08-12T02:28:51.403Z,63.24
2022-08-12T02:29:51.385Z,62.86
2022-08-12T02:30:51.368Z,62.63
2022-08-12T02:31:51.390Z,62.44
2022-08-12T02:32:51.348Z,61.62
2022-08-12T02:33:51.335Z,61.17
2022-08-12T02:34:51.323Z,60.73
2022-08-12T02:35:51.318Z,59.74
2022-08-12T02:36:51.396Z,59.52
2022-08-12T02:37:51.298Z,59.02
2022-08-12T02:38:51.301Z,58.65
2022-08-12T02:39:51.339Z,58.49
2022-08-12T02:40:51.246Z,58.17
2022-08-12T02:41:51.268Z,57.92
2022-08-12T02:42:51.239Z,57.25
2022-08-12T02:43:51.232Z,58.00
2022-08-12T02:44:51.216Z,58.57
2022-08-12T02:45:51.214Z,58.82
2022-08-12T02:46:51.214Z,58.29
2022-08-12T02:47:59.204Z,58.29
2022-08-12T02:48:52.156Z,56.90
2022-08-12T02:49:51.162Z,57.81
2022-08-12T02:50:51.136Z,57.37
2022-08-12T02:51:51.146Z,57.14
2022-08-12T02:52:51.108Z,57.69
2022-08-12T02:54:03.324Z,57.65
2022-08-12T02:54:52.089Z,57.61
2022-08-12T02:55:51.106Z,57.53
2022-08-12T02:56:51.223Z,58.12
2022-08-12T02:57:51.065Z,57.02
2022-08-12T02:58:51.059Z,58.41
2022-08-12T02:59:51.036Z,59.99
2022-08-12T03:00:51.068Z,61.35
2022-08-12T03:01:51.043Z,61.94
2022-08-12T03:02:51.002Z,63.24
2022-08-12T03:03:50.989Z,63.19
2022-08-12T03:04:50.981Z,63.29
2022-08-12T03:05:52.424Z,63.10
2022-08-12T03:06:50.973Z,61.39
2022-08-12T03:07:59.151Z,60.82
2022-08-12T03:08:53.739Z,59.44
2022-08-12T03:10:03.556Z,58.65
2022-08-12T03:10:51.900Z,58.29
2022-08-12T03:11:50.924Z,56.98
2022-08-12T03:12:51.190Z,55.19
2022-08-12T03:13:50.881Z,53.50
2022-08-12T03:14:50.852Z,51.56
2022-08-12T03:15:50.857Z,50.39
2022-08-12T03:16:50.853Z,48.14
2022-08-12T03:18:25.626Z,46.28
2022-08-12T03:18:51.821Z,44.76
2022-08-12T03:20:10.513Z,44.29
2022-08-12T03:20:51.798Z,43.24
2022-08-12T03:21:52.798Z,42.80
2022-08-12T03:22:51.782Z,42.24
2022-08-12T03:23:50.766Z,41.70
2022-08-12T03:24:50.745Z,41.29
2022-08-12T03:25:50.740Z,40.97
2022-08-12T03:26:50.733Z,40.69
2022-08-12T03:27:50.715Z,40.11
2022-08-12T03:28:51.060Z,40.61
2022-08-12T03:29:51.463Z,40.93
2022-08-12T03:30:54.763Z,41.25
2022-08-12T03:31:51.670Z,40.85
2022-08-12T03:32:50.955Z,40.53
2022-08-12T03:34:01.642Z,38.56
2022-08-12T03:34:51.642Z,36.27
2022-08-12T03:35:50.635Z,34.80
2022-08-12T03:36:50.617Z,32.90
2022-08-12T03:37:50.605Z,30.98
2022-08-12T03:38:50.603Z,29.67
2022-08-12T03:39:50.656Z,28.68
2022-08-12T03:40:50.598Z,27.70
2022-08-12T03:41:50.557Z,26.59
2022-08-12T03:42:50.540Z,26.41
2022-08-12T03:43:50.550Z,25.94
2022-08-12T03:44:50.540Z,26.30
2022-08-12T03:45:52.321Z,26.92
2022-08-12T03:46:50.519Z,28.33
2022-08-12T03:47:50.476Z,29.30
2022-08-12T03:48:50.470Z,29.77
2022-08-12T03:49:50.468Z,29.57
2022-08-12T03:50:50.467Z,29.38
2022-08-12T03:51:50.441Z,30.40
2022-08-12T03:52:50.438Z,30.84
2022-08-12T03:53:50.431Z,31.00
2022-08-12T03:54:50.399Z,31.68
2022-08-12T03:55:50.400Z,32.69
2022-08-12T03:56:50.440Z,32.49
2022-08-12T03:57:50.391Z,31.47
2022-08-12T03:58:50.366Z,31.19
2022-08-12T03:59:50.349Z,32.39
2022-08-12T04:00:50.426Z,34.10
2022-08-12T04:01:50.353Z,34.94
2022-08-12T04:02:50.301Z,35.62
2022-08-12T04:03:50.299Z,36.08
2022-08-12T04:04:50.282Z,37.20
2022-08-12T04:05:55.620Z,37.30
2022-08-12T04:06:51.311Z,36.84
2022-08-12T04:07:55.057Z,36.46
2022-08-12T04:08:51.238Z,35.93
2022-08-12T04:09:50.236Z,34.37
2022-08-12T04:10:50.221Z,33.13
2022-08-12T04:11:50.218Z,32.14
2022-08-12T04:12:50.211Z,31.26
2022-08-12T04:13:50.216Z,30.60
2022-08-12T04:14:50.173Z,29.32
2022-08-12T04:15:50.162Z,28.52
2022-08-12T04:16:50.150Z,27.84
2022-08-12T04:18:06.744Z,27.66
2022-08-12T04:18:51.115Z,27.90
2022-08-12T04:19:50.149Z,27.88
2022-08-12T04:20:50.114Z,27.81
2022-08-12T04:22:02.243Z,27.39
2022-08-12T04:22:51.096Z,27.21
2022-08-12T04:23:50.064Z,27.32
2022-08-12T04:24:50.429Z,27.44
2022-08-12T04:25:50.051Z,26.87
2022-08-12T04:26:50.050Z,26.17
2022-08-12T04:27:50.032Z,25.55
2022-08-12T04:28:50.020Z,24.76
2022-08-12T04:30:30.891Z,23.84
2022-08-12T04:30:50.983Z,22.72
2022-08-12T04:31:49.975Z,21.64
2022-08-12T04:32:50.367Z,20.89
2022-08-12T04:33:49.948Z,20.81
2022-08-12T04:34:49.945Z,20.77
2022-08-12T04:35:49.945Z,20.54
2022-08-12T04:36:49.915Z,20.34
2022-08-12T04:37:58.062Z,19.98
2022-08-12T04:38:50.903Z,19.44
2022-08-12T04:39:49.952Z,18.86
2022-08-12T04:40:49.867Z,18.55
2022-08-12T04:41:57.560Z,18.37
2022-08-12T04:42:50.846Z,18.37
2022-08-12T04:44:01.021Z,18.34
2022-08-12T04:44:50.828Z,18.24
2022-08-12T04:45:49.825Z,18.07
2022-08-12T04:46:49.801Z,18.13
2022-08-12T04:47:49.790Z,18.13
2022-08-12T04:48:49.807Z,18.07
2022-08-12T04:49:49.768Z,18.07
2022-08-12T04:50:49.760Z,18.19
2022-08-12T04:51:54.639Z,18.26
2022-08-12T04:52:50.731Z,18.60
2022-08-12T04:53:49.723Z,19.02
2022-08-12T04:54:49.705Z,19.42
2022-08-12T04:55:49.690Z,20.40
2022-08-12T04:57:03.943Z,21.58
2022-08-12T04:57:50.668Z,22.40
2022-08-12T04:58:52.673Z,22.08
2022-08-12T04:59:49.643Z,21.89
2022-08-12T05:00:49.638Z,22.15
2022-08-12T05:01:49.626Z,22.84
2022-08-12T05:02:49.680Z,23.51
2022-08-12T05:03:49.626Z,23.97
2022-08-12T05:04:49.606Z,23.89
2022-08-12T05:05:49.578Z,22.87
2022-08-12T05:06:49.575Z,21.80
2022-08-12T05:07:54.969Z,21.27
2022-08-12T05:08:50.562Z,21.23
2022-08-12T05:10:00.925Z,20.83
2022-08-12T05:10:50.511Z,20.56
2022-08-12T05:11:54.344Z,19.90
2022-08-12T05:12:50.505Z,18.73
2022-08-12T05:13:49.494Z,17.79
2022-08-12T05:14:49.524Z,17.54
2022-08-12T05:16:00.247Z,18.58
2022-08-12T05:16:50.453Z,19.73
2022-08-12T05:17:49.439Z,20.77
2022-08-12T05:18:49.426Z,20.32
2022-08-12T05:19:49.430Z,19.77
2022-08-12T05:20:49.407Z,19.86
2022-08-12T05:21:49.411Z,20.21
2022-08-12T05:22:49.376Z,20.54
2022-08-12T05:23:49.369Z,21.16
2022-08-12T05:24:49.393Z,22.10
2022-08-12T05:25:49.355Z,23.27
2022-08-12T05:26:49.340Z,23.88
2022-08-12T05:27:58.438Z,24.14
2022-08-12T05:28:50.323Z,24.33
2022-08-12T05:30:06.534Z,25.39
2022-08-12T05:30:50.345Z,26.56
2022-08-12T05:31:49.265Z,27.27
2022-08-12T05:32:49.270Z,27.64
2022-08-12T05:33:49.252Z,28.58
2022-08-12T05:34:49.256Z,29.52
2022-08-12T05:35:49.231Z,29.67
2022-08-12T05:36:49.224Z,29.18
2022-08-12T05:37:49.212Z,29.10
2022-08-12T05:38:49.185Z,28.43
2022-08-12T05:39:49.238Z,28.62
2022-08-12T05:40:49.178Z,28.86
2022-08-12T05:41:49.187Z,29.38
2022-08-12T05:42:49.153Z,30.23
2022-08-12T05:43:49.141Z,30.14
2022-08-12T05:44:49.144Z,30.18
2022-08-12T05:45:49.110Z,31.12
2022-08-12T05:46:49.110Z,32.54
2022-08-12T05:47:53.859Z,34.37
2022-08-12T05:48:50.079Z,35.50
2022-08-12T05:49:49.071Z,37.04
2022-08-12T05:50:49.099Z,38.81
2022-08-12T05:51:49.040Z,39.58
2022-08-12T05:52:49.036Z,38.63
2022-08-12T05:53:49.019Z,36.49
2022-08-12T05:54:57.628Z,34.26
2022-08-12T05:55:50.020Z,33.42
2022-08-12T05:56:48.993Z,33.63
2022-08-12T05:57:48.981Z,36.68
2022-08-12T05:58:48.978Z,38.01
2022-08-12T05:59:48.956Z,35.33
2022-08-12T06:00:48.959Z,33.93
2022-08-12T06:02:11.317Z,33.52
2022-08-12T06:02:49.994Z,34.10
2022-08-12T06:03:48.931Z,34.94
2022-08-12T06:04:48.903Z,38.56
2022-08-12T06:05:54.598Z,42.33
2022-08-12T06:06:49.904Z,45.14
2022-08-12T06:08:01.528Z,44.33
2022-08-12T06:08:49.872Z,42.07
2022-08-12T06:09:48.833Z,40.42
2022-08-12T06:10:48.831Z,37.20
2022-08-12T06:12:06.009Z,37.40
2022-08-12T06:12:49.828Z,40.18
2022-08-12T06:13:53.965Z,45.00
2022-08-12T06:14:49.798Z,51.03
2022-08-12T06:15:48.768Z,54.61
2022-08-12T06:16:48.793Z,53.53
2022-08-12T06:17:48.768Z,48.56
2022-08-12T06:18:48.760Z,45.83
2022-08-12T06:20:26.683Z,50.36
2022-08-12T06:20:49.729Z,55.88
2022-08-12T06:21:48.697Z,59.48
2022-08-12T06:22:48.698Z,62.30
2022-08-12T06:23:48.683Z,64.01
2022-08-12T06:24:48.704Z,65.36
2022-08-12T06:25:48.659Z,68.22
2022-08-12T06:26:48.668Z,64.95
2022-08-12T06:28:07.624Z,60.29
2022-08-12T06:28:49.627Z,57.69
2022-08-12T06:30:10.033Z,63.34
2022-08-12T06:31:14.905Z,64.85
2022-08-12T06:31:49.611Z,72.33
2022-08-12T06:33:04.231Z,81.20
2022-08-12T06:33:59.640Z,89.79
2022-08-12T06:35:25.895Z,96.51
2022-08-12T06:35:50.223Z,101.52
2022-08-12T06:36:48.551Z,107.50
2022-08-12T06:37:51.555Z,110.97
2022-08-12T06:38:49.532Z,114.14
2022-08-12T06:39:48.576Z,114.21
2022-08-12T06:40:48.485Z,114.76
2022-08-12T06:42:02.510Z,116.43
2022-08-12T06:42:49.454Z,117.16
2022-08-12T06:44:05.613Z,120.00
2022-08-12T06:44:49.470Z,119.24
2022-08-12T06:45:48.445Z,120.35
2022-08-12T06:46:48.425Z,120.78
2022-08-12T06:47:48.399Z,122.10
2022-08-12T06:48:48.452Z,121.13
2022-08-12T06:49:48.388Z,113.29
2022-08-12T06:50:48.375Z,105.08
2022-08-12T06:51:56.104Z,98.72
2022-08-12T06:52:49.351Z,96.85
2022-08-12T06:53:48.337Z,98.26
2022-08-12T06:54:48.346Z,97.46
2022-08-12T06:55:58.573Z,96.57
2022-08-12T06:58:05.311Z,93.82
2022-08-12T06:58:07.049Z,93.66
2022-08-12T06:58:49.279Z,96.73
2022-08-12T06:59:48.288Z,103.14
2022-08-12T07:00:48.300Z,106.07
2022-08-12T07:01:50.824Z,108.61
2022-08-12T07:02:48.250Z,113.90
2022-08-12T07:03:48.226Z,121.04
2022-08-12T07:04:48.206Z,124.35
2022-08-12T07:05:48.226Z,125.28
2022-08-12T07:06:48.198Z,127.27
2022-08-12T07:07:48.171Z,126.03
2022-08-12T07:08:48.170Z,127.75
2022-08-12T07:10:04.267Z,127.95
2022-08-12T07:10:49.163Z,129.33
2022-08-12T07:11:50.978Z,131.66
2022-08-12T07:12:48.121Z,132.80
2022-08-12T07:14:02.629Z,134.39
2022-08-12T07:14:49.191Z,135.69
2022-08-12T07:15:48.120Z,137.36
2022-08-12T07:16:48.092Z,143.09
2022-08-12T07:17:48.053Z,141.76
2022-08-12T07:18:48.086Z,148.78
2022-08-12T07:19:48.729Z,157.42
2022-08-12T07:20:52.586Z,160.58
2022-08-12T07:22:00.232Z,167.29
2022-08-12T07:22:49.015Z,173.15
2022-08-12T07:23:47.988Z,177.35
2022-08-12T07:24:47.998Z,176.97
2022-08-12T07:25:48.010Z,179.43
2022-08-12T07:26:47.977Z,182.94
2022-08-12T07:27:47.941Z,185.97
2022-08-12T07:28:47.985Z,188.52
2022-08-12T07:30:03.775Z,191.24
2022-08-12T07:30:48.956Z,194.16
2022-08-12T07:31:47.910Z,194.96
2022-08-12T07:32:47.900Z,196.12
2022-08-12T07:33:47.882Z,197.76
2022-08-12T07:34:47.895Z,195.43
2022-08-12T07:35:48.287Z,198.48
2022-08-12T07:36:47.877Z,204.37
2022-08-12T07:37:47.828Z,206.02
2022-08-12T07:38:47.847Z,204.62
2022-08-12T07:39:51.291Z,205.00
2022-08-12T07:40:48.808Z,207.97
2022-08-12T07:41:47.834Z,208.62
2022-08-12T07:42:47.791Z,211.15
2022-08-12T07:43:47.770Z,217.69
2022-08-12T07:44:47.768Z,220.30
2022-08-12T07:45:47.785Z,222.38
2022-08-12T07:46:47.762Z,222.83
2022-08-12T07:47:47.732Z,223.13
2022-08-12T07:48:47.721Z,221.63
2022-08-12T07:50:03.438Z,221.33
2022-08-12T07:50:48.702Z,224.64
2022-08-12T07:51:47.723Z,228.05
2022-08-12T07:52:47.677Z,231.57
2022-08-12T07:53:54.799Z,236.37
2022-08-12T07:54:48.654Z,246.23
2022-08-12T07:55:47.645Z,252.62
2022-08-12T07:56:47.657Z,256.75
2022-08-12T07:57:47.645Z,264.55
2022-08-12T07:58:47.615Z,267.98
2022-08-12T07:59:47.596Z,272.18
2022-08-12T08:00:48.607Z,276.97
2022-08-12T08:01:47.648Z,277.90
2022-08-12T08:02:47.566Z,281.93
2022-08-12T08:03:49.155Z,285.58
2022-08-12T08:04:47.549Z,287.82
2022-08-12T08:05:47.538Z,295.54
2022-08-12T08:06:47.552Z,305.93
2022-08-12T08:07:47.524Z,312.29
2022-08-12T08:08:47.509Z,305.36
2022-08-12T08:09:47.491Z,298.47
2022-08-12T08:10:47.484Z,290.35
2022-08-12T08:11:47.461Z,295.80
2022-08-12T08:12:47.490Z,294.75
2022-08-12T08:13:47.470Z,310.53
2022-08-12T08:14:49.854Z,323.92
2022-08-12T08:16:03.967Z,329.40
2022-08-12T08:16:48.411Z,317.08
2022-08-12T08:17:47.403Z,288.82
2022-08-12T08:18:47.385Z,266.69
2022-08-12T08:20:02.091Z,242.43
2022-08-12T08:20:48.359Z,235.69
2022-08-12T08:21:47.359Z,249.01
2022-08-12T08:22:47.403Z,261.83
2022-08-12T08:23:56.247Z,282.65
2022-08-12T08:24:48.325Z,302.02
2022-08-12T08:25:47.313Z,314.97
2022-08-12T08:26:47.338Z,321.08
2022-08-12T08:27:47.294Z,309.37
2022-08-12T08:28:47.286Z,305.93
2022-08-12T08:29:47.267Z,322.02
2022-08-12T08:30:47.259Z,336.44
2022-08-12T08:31:47.248Z,348.14
2022-08-12T08:32:47.235Z,351.84
2022-08-12T08:34:08.962Z,353.72
2022-08-12T08:34:54.052Z,354.86
2022-08-12T08:35:48.197Z,356.78
2022-08-12T08:36:47.204Z,357.94
2022-08-12T08:37:48.311Z,362.65
2022-08-12T08:38:53.211Z,367.90
2022-08-12T08:39:48.210Z,370.37
2022-08-12T08:40:47.184Z,379.35
2022-08-12T08:42:17.225Z,381.94
2022-08-12T08:42:51.259Z,382.37
2022-08-12T08:43:47.161Z,385.66
2022-08-12T08:44:47.109Z,389.69
2022-08-12T08:45:47.085Z,387.22
2022-08-12T08:46:47.142Z,383.90
2022-08-12T08:47:47.057Z,386.77
2022-08-12T08:48:47.067Z,394.96
2022-08-12T08:49:47.090Z,398.71
2022-08-12T08:50:47.043Z,397.77
2022-08-12T08:51:48.012Z,395.42
2022-08-12T08:52:47.093Z,393.57
2022-08-12T08:53:51.911Z,395.66
2022-08-12T08:54:48.018Z,397.77
2022-08-12T08:56:04.033Z,398.71
2022-08-12T08:56:47.972Z,399.18
2022-08-12T08:57:46.957Z,398.24
2022-08-12T08:58:46.949Z,396.59
2022-08-12T08:59:46.970Z,393.57
2022-08-12T09:01:47.968Z,398.24
2022-08-12T09:02:49.306Z,401.57
2022-08-12T09:05:07.392Z,401.57
2022-08-12T09:05:11.314Z,407.17
2022-08-12T09:06:02.215Z,406.18
2022-08-12T09:08:11.960Z,408.16
2022-08-12T09:08:47.861Z,412.67
2022-08-12T09:10:02.945Z,420.15
2022-08-12T09:10:49.385Z,422.27
2022-08-12T09:12:06.821Z,424.40
2022-08-12T09:14:11.449Z,426.56
2022-08-12T09:14:51.247Z,427.37
2022-08-12T09:16:50.116Z,424.67
2022-08-12T09:17:46.739Z,422.80
2022-08-12T09:18:46.739Z,427.10
2022-08-12T09:19:46.712Z,435.40
2022-08-12T09:20:50.892Z,439.10
2022-08-12T09:22:49.315Z,437.10
2022-08-12T09:23:59.743Z,446.69
2022-08-12T09:24:47.656Z,451.80
2022-08-12T09:25:48.497Z,456.71
2022-08-12T09:26:46.893Z,453.94
2022-08-12T09:28:15.539Z,449.08
2022-08-12T09:30:10.867Z,451.80
2022-08-12T09:30:47.607Z,453.33
2022-08-12T09:32:03.968Z,452.71
2022-08-12T09:33:04.144Z,454.55
2022-08-12T09:34:25.700Z,453.33
2022-08-12T09:34:50.867Z,451.19
2022-08-12T09:35:46.562Z,451.50
2022-08-12T09:36:59.930Z,452.11
2022-08-12T09:37:58.043Z,449.68
2022-08-12T09:38:58.832Z,442.28
2022-08-12T09:40:05.066Z,431.21
2022-08-12T09:40:57.497Z,443.45
2022-08-12T09:42:33.452Z,451.80
2022-08-12T09:42:49.207Z,451.50
2022-08-12T09:43:53.858Z,458.27
2022-08-12T09:44:47.480Z,453.63
2022-08-12T09:46:20.543Z,456.10
2022-08-12T09:46:47.480Z,456.40
2022-08-12T09:47:59.315Z,460.47
2022-08-12T09:48:56.725Z,462.37
2022-08-12T09:49:47.398Z,464.61
2022-08-12T09:50:50.618Z,465.58
2022-08-12T09:51:47.384Z,459.53
2022-08-12T09:52:48.287Z,457.65
2022-08-12T09:53:46.340Z,452.11
2022-08-12T09:54:48.277Z,459.84
2022-08-12T09:56:05.580Z,457.65
2022-08-12T09:56:58.903Z,453.63
2022-08-12T09:58:45.863Z,456.40
2022-08-12T09:58:58.969Z,458.27
2022-08-12T10:00:15.054Z,461.42
2022-08-12T10:00:52.235Z,446.10
2022-08-12T10:02:42.339Z,449.98
2022-08-12T10:02:49.790Z,453.63
2022-08-12T10:04:03.520Z,459.53
2022-08-12T10:04:51.323Z,453.63
2022-08-12T10:06:19.968Z,451.50
2022-08-12T10:06:54.010Z,456.40
2022-08-12T10:07:47.272Z,460.47
2022-08-12T10:08:49.671Z,461.74
2022-08-12T10:09:58.715Z,462.69
2022-08-12T10:10:47.138Z,464.93
2022-08-12T10:12:11.854Z,470.47
2022-08-12T10:13:07.003Z,472.45
2022-08-12T10:13:47.134Z,477.15
2022-08-12T10:14:50.554Z,481.60
2022-08-12T10:16:02.686Z,482.29
2022-08-12T10:16:47.117Z,479.53
2022-08-12T10:17:56.762Z,468.17
2022-08-12T10:18:51.862Z,466.55
2022-08-12T10:19:51.999Z,458.90
2022-08-12T10:20:47.041Z,464.29
2022-08-12T10:21:46.037Z,467.52
2022-08-12T10:22:46.011Z,463.65
2022-08-12T10:23:48.488Z,457.96
2022-08-12T10:24:53.377Z,456.71
2022-08-12T10:26:34.796Z,456.71
2022-08-12T10:26:46.999Z,464.93
2022-08-12T10:28:03.940Z,469.81
2022-08-12T10:29:01.804Z,473.12
2022-08-12T10:30:11.889Z,476.14
2022-08-12T10:30:58.461Z,471.46
2022-08-12T10:32:20.579Z,476.81
2022-08-12T10:32:56.431Z,477.49
2022-08-12T10:34:05.144Z,482.98
2022-08-12T10:34:53.153Z,482.98
2022-08-12T10:35:46.904Z,484.03
2022-08-12T10:36:45.857Z,485.42
2022-08-12T10:38:37.877Z,484.72
2022-08-12T10:38:46.856Z,487.54
2022-08-12T10:40:05.648Z,491.10
2022-08-12T10:40:46.872Z,492.54
2022-08-12T10:41:58.207Z,493.27
2022-08-12T10:42:46.869Z,493.99
2022-08-12T10:43:55.492Z,490.74
2022-08-12T10:44:46.862Z,487.89
2022-08-12T10:45:46.095Z,485.42
2022-08-12T10:46:45.767Z,484.72
2022-08-12T10:48:07.324Z,487.54
2022-08-12T10:48:46.734Z,489.67
2022-08-12T10:50:03.045Z,481.25
2022-08-12T10:51:02.587Z,482.98
2022-08-12T10:51:52.019Z,477.15
2022-08-12T10:52:46.906Z,484.03
2022-08-12T10:53:46.884Z,484.38
2022-08-12T10:54:45.655Z,488.60
2022-08-12T10:55:45.638Z,487.89
2022-08-12T10:56:45.670Z,488.60
2022-08-12T10:58:13.230Z,491.46
2022-08-12T10:58:47.718Z,484.03
2022-08-12T11:00:34.661Z,483.33
2022-08-12T11:01:25.731Z,487.18
2022-08-12T11:04:17.852Z,492.18
2022-08-12T11:04:18.991Z,496.18
2022-08-12T11:04:24.856Z,496.55
2022-08-12T11:04:49.470Z,496.55
2022-08-12T11:07:06.906Z,496.55
2022-08-12T11:07:09.743Z,498.39
2022-08-12T11:08:36.245Z,494.72
2022-08-12T11:08:47.210Z,493.63
2022-08-12T11:09:56.398Z,495.45
2022-08-12T11:10:46.503Z,488.60
2022-08-12T11:12:35.832Z,488.60
2022-08-12T11:12:59.150Z,487.89
2022-08-12T11:13:48.941Z,492.18
2022-08-12T11:14:50.593Z,488.60
2022-08-12T11:16:03.908Z,492.18
2022-08-12T11:17:06.481Z,491.10
2022-08-12T11:17:53.333Z,491.82
2022-08-12T11:18:46.369Z,487.18
2022-08-12T11:19:46.376Z,490.39
2022-08-12T11:20:45.368Z,499.50
2022-08-12T11:21:56.622Z,502.86
2022-08-12T11:22:57.704Z,502.49
2022-08-12T11:23:46.371Z,506.27
2022-08-12T11:24:51.656Z,505.51
2022-08-12T11:25:57.278Z,504.00
2022-08-12T11:26:46.412Z,506.66
2022-08-12T11:27:45.300Z,502.86
2022-08-12T11:28:50.499Z,499.87
2022-08-12T11:30:02.045Z,495.08
2022-08-12T11:30:46.243Z,495.08
2022-08-12T11:32:02.123Z,491.10
2022-08-12T11:32:47.097Z,491.82
2022-08-12T11:34:04.138Z,491.10
2022-08-12T11:34:51.845Z,494.35
2022-08-12T11:35:46.175Z,496.55
2022-08-12T11:36:45.144Z,500.62
2022-08-12T11:37:58.224Z,503.24
2022-08-12T11:38:48.150Z,502.11
2022-08-12T11:40:03.137Z,502.86
2022-08-12T11:40:46.123Z,505.89
2022-08-12T11:41:45.084Z,500.99
2022-08-12T11:42:46.277Z,502.49
2022-08-12T11:43:50.514Z,500.99
2022-08-12T11:44:46.067Z,498.02
2022-08-12T11:45:45.232Z,500.24
2022-08-12T11:46:45.034Z,499.87
2022-08-12T11:47:46.016Z,501.74
2022-08-12T11:48:52.469Z,499.87
2022-08-12T11:49:46.025Z,499.87
2022-08-12T11:50:45.996Z,500.24
2022-08-12T11:51:44.988Z,495.08
2022-08-12T11:52:55.394Z,500.99
2022-08-12T11:53:59.071Z,496.55
2022-08-12T11:54:51.151Z,494.72
2022-08-12T11:55:46.966Z,500.62
2022-08-12T11:56:59.675Z,503.24
2022-08-12T11:59:02.764Z,504.38
2022-08-12T12:02:02.095Z,511.28
2022-08-12T12:02:45.873Z,513.24
2022-08-12T12:03:46.281Z,515.21
2022-08-12T12:04:44.857Z,517.59
2022-08-12T12:05:45.781Z,515.60
2022-08-12T12:06:52.924Z,507.42
2022-08-12T12:08:37.393Z,511.28
2022-08-12T12:08:52.957Z,507.04
2022-08-12T12:09:52.352Z,510.12
2022-08-12T12:10:45.772Z,510.12
2022-08-12T12:11:49.396Z,515.60
2022-08-12T12:12:49.515Z,512.45
2022-08-12T12:14:08.818Z,508.58
2022-08-12T12:14:45.862Z,508.58
2022-08-12T12:15:45.737Z,511.28
2022-08-12T12:16:49.934Z,510.51
2022-08-12T12:17:45.709Z,514.02
2022-08-12T12:18:44.708Z,510.12
2022-08-12T12:19:46.078Z,508.58
2022-08-12T12:20:44.687Z,508.58
2022-08-12T12:21:47.491Z,511.67
2022-08-12T12:22:45.347Z,511.67
2022-08-12T12:23:47.136Z,516.39
2022-08-12T12:24:44.631Z,510.51
2022-08-12T12:26:06.917Z,512.06
2022-08-12T12:26:45.614Z,513.24
2022-08-12T12:28:06.276Z,515.21
2022-08-12T12:28:54.949Z,521.20
2022-08-12T12:30:18.660Z,526.10
2022-08-12T12:30:54.718Z,525.69
2022-08-12T12:32:09.969Z,526.10
2022-08-12T12:32:53.358Z,526.92
2022-08-12T12:33:56.927Z,525.28
2022-08-12T12:35:17.839Z,526.10
2022-08-12T12:36:19.745Z,531.09
2022-08-12T12:36:45.516Z,529.41
2022-08-12T12:38:04.436Z,526.51
2022-08-12T12:38:45.466Z,522.82
2022-08-12T12:39:55.294Z,516.39
2022-08-12T12:40:45.475Z,506.66
2022-08-12T12:42:41.644Z,504.38
2022-08-12T12:42:57.788Z,508.96
2022-08-12T12:44:04.230Z,517.19
2022-08-12T12:44:53.516Z,519.19
2022-08-12T12:45:46.452Z,519.99
2022-08-12T12:46:44.658Z,527.75
2022-08-12T12:47:44.384Z,528.17
2022-08-12T12:48:44.815Z,528.58
2022-08-12T12:49:44.373Z,530.25
2022-08-12T12:50:45.719Z,534.90